Disclaimer

Please do not use the information listed here in-flight or in-navigation, as they are not provided to us by the airports but are provided by volunteers, so they might be outdated.

Search


Regions


Airport information page

Radio informations:
Tower (TWR) - 118.8 MHz
Ground (GND) - 121.7 MHz
Clearance delivery - 121.8 MHz
Automatic Terminal Information Service (ATIS) - 113.3 MHz
RIYADH APP - 120.0 MHz

Airport informations:
Latitude: 24° 57' 27.50" N
Longitude: 046° 41' 55.59" E
Elevation: 2049 feet - 625 meters
Operating hours: N/A
Operating agency: Military-civil joint use airport
Timezone: UTC+3
Fuel: Jet A1, without icing nhibitor.

100/130 octane gasoline, leaded, MIL-L-5572F (GREEN)

Runway information:
15R/33L - 13796 x 197 feet< - >4205 x 60 meters
15L/33R - 13796 x 197 feet< - >4205 x 60 meters

Recent METARs:
OERK 122000Z 11008KT 9999 SCT030 BKN040 20/17 Q1019 NOSIG
OERK 122100Z 09004KT 9999 SCT030 BKN040 19/17 Q1020 NOSIG
OERK 122100Z 09004KT 9999 SCT030 BKN040 19/17 Q1020 NOSIG

Airport on the map: